createdAt,value
2019-03-21T00:00:30.918Z,101558.11
2019-03-21T00:03:20.851Z,101556.98
2019-03-21T00:06:10.915Z,101553.84
2019-03-21T00:09:00.360Z,101555.98
2019-03-21T00:11:58.439Z,101554.53
2019-03-21T00:14:50.727Z,101550.17
2019-03-21T00:17:49.617Z,101545.78
2019-03-21T00:20:39.621Z,101552.82
2019-03-21T00:23:29.429Z,101554.12
2019-03-21T00:26:19.735Z,101558.39
2019-03-21T00:29:09.304Z,101555.49
2019-03-21T00:31:58.968Z,101549.75
2019-03-21T00:34:48.870Z,101549.19
2019-03-21T00:37:38.459Z,101538.69
2019-03-21T00:40:33.479Z,101545.13
2019-03-21T00:43:23.086Z,101541.75
2019-03-21T00:46:13.214Z,101537.47
2019-03-21T00:49:03.360Z,101543.17
2019-03-21T00:51:53.411Z,101540.77
2019-03-21T00:54:44.772Z,101543.75
2019-03-21T00:57:34.948Z,101540.47
2019-03-21T01:00:31.051Z,101542.37
2019-03-21T01:03:20.778Z,101543.11
2019-03-21T01:06:11.013Z,101548.32
2019-03-21T01:09:00.849Z,101543.98
2019-03-21T01:11:52.396Z,101546.38
2019-03-21T01:14:42.283Z,101541.31
2019-03-21T01:17:31.213Z,101548.39
2019-03-21T01:20:27.860Z,101547.67
2019-03-21T01:23:17.025Z,101540.02
2019-03-21T01:26:07.365Z,101541.67
2019-03-21T01:28:57.281Z,101536.16
2019-03-21T01:31:46.478Z,101539.03
2019-03-21T01:34:36.588Z,101531.64
2019-03-21T01:37:26.722Z,101529.98
2019-03-21T01:40:19.279Z,101526.23
2019-03-21T01:43:08.766Z,101531.81
2019-03-21T01:45:58.071Z,101528.87
2019-03-21T01:48:47.761Z,101529.37
2019-03-21T01:51:37.420Z,101528.13
2019-03-21T01:54:27.101Z,101534.73
2019-03-21T01:57:16.821Z,101526.77
2019-03-21T02:00:10.087Z,101530.25
2019-03-21T02:03:00.112Z,101520.34
2019-03-21T02:05:50.488Z,101522.30
2019-03-21T02:08:40.315Z,101513.45
2019-03-21T02:11:29.638Z,101513.26
2019-03-21T02:14:19.933Z,101520.98
2019-03-21T05:00:40.749Z,101524.19
2019-03-21T05:07:02.177Z,101534.27
2019-03-21T05:09:52.022Z,101531.15
2019-03-21T05:12:42.024Z,101534.91
2019-03-21T05:15:34.930Z,101528.31
2019-03-21T05:18:28.604Z,101532.36
2019-03-21T05:24:39.332Z,101526.13
2019-03-21T05:27:28.208Z,101533.88
2019-03-21T05:30:20.814Z,101532.17
2019-03-21T05:33:09.940Z,101536.11
2019-03-21T05:35:59.384Z,101531.86
2019-03-21T05:38:49.964Z,101536.23
2019-03-21T05:41:39.590Z,101544.09
2019-03-21T05:44:33.578Z,101548.58
2019-03-21T05:47:24.063Z,101552.19
2019-03-21T05:53:43.272Z,101548.41
2019-03-21T05:56:33.205Z,101556.16
2019-03-21T05:59:23.000Z,101553.59
2019-03-21T06:02:12.645Z,101550.22
2019-03-21T06:05:02.770Z,101548.46
2019-03-21T06:11:45.344Z,101557.88
2019-03-21T06:14:35.872Z,101550.66
2019-03-21T06:17:25.437Z,101557.94
2019-03-21T06:20:26.130Z,101562.17
2019-03-21T06:23:48.236Z,101558.00
2019-03-21T06:27:02.092Z,101563.51
2019-03-21T06:29:51.807Z,101569.75
2019-03-21T06:32:41.168Z,101571.30
2019-03-21T06:35:31.422Z,101565.86
2019-03-21T06:38:21.319Z,101561.31
2019-03-21T06:41:11.249Z,101569.18
2019-03-21T06:44:00.913Z,101570.99
2019-03-21T06:46:50.852Z,101565.80
2019-03-21T06:49:40.837Z,101565.55
2019-03-21T06:52:30.453Z,101567.84
2019-03-21T06:55:20.117Z,101575.70
2019-03-21T06:58:10.345Z,101575.33
2019-03-21T07:01:01.172Z,101576.58
2019-03-21T07:07:35.709Z,101571.27
2019-03-21T07:17:00.681Z,101569.95
2019-03-21T07:19:55.147Z,101578.80
2019-03-21T07:22:45.012Z,101576.41
2019-03-21T07:25:34.234Z,101577.69
2019-03-21T07:28:24.238Z,101582.33
2019-03-21T07:31:14.288Z,101578.44
2019-03-21T07:34:04.451Z,101573.20
2019-03-21T07:36:54.982Z,101571.42
2019-03-21T07:39:44.654Z,101576.17
2019-03-21T07:42:34.547Z,101580.21
2019-03-21T07:45:24.330Z,101580.88
2019-03-21T07:48:14.021Z,101575.55
2019-03-21T07:51:03.413Z,101582.14
2019-03-21T07:53:52.534Z,101582.27
2019-03-21T07:56:42.287Z,101579.66
2019-03-21T07:59:32.778Z,101582.19
2019-03-21T08:02:22.084Z,101584.59
2019-03-21T08:05:12.100Z,101583.53
2019-03-21T08:08:01.993Z,101579.34
2019-03-21T08:10:53.183Z,101583.42
2019-03-21T08:13:43.285Z,101586.00
2019-03-21T08:16:33.122Z,101587.28
2019-03-21T08:19:22.419Z,101580.47
2019-03-21T08:22:11.811Z,101579.43
2019-03-21T08:25:01.864Z,101574.72
2019-03-21T08:27:51.894Z,101571.32
2019-03-21T08:31:29.682Z,101570.75
2019-03-21T08:34:19.521Z,101570.30
2019-03-21T08:37:09.493Z,101566.11
2019-03-21T08:39:59.394Z,101569.13
2019-03-21T08:42:48.789Z,101562.75
2019-03-21T08:45:38.876Z,101565.73
2019-03-21T08:48:39.585Z,101569.61
2019-03-21T08:51:29.798Z,101566.96
2019-03-21T09:01:22.338Z,101571.81
2019-03-21T09:04:12.302Z,101561.53
2019-03-21T09:07:01.983Z,101563.86
2019-03-21T09:09:51.411Z,101561.52
2019-03-21T09:12:42.613Z,101558.91
2019-03-21T09:15:32.663Z,101550.98
2019-03-21T09:18:21.844Z,101552.00
2019-03-21T09:21:19.625Z,101545.00
2019-03-21T09:24:03.872Z,101552.55
2019-03-21T09:26:53.370Z,101552.83
2019-03-21T09:29:53.121Z,101554.11
2019-03-21T09:32:34.038Z,101558.09
2019-03-21T09:35:24.206Z,101551.57
2019-03-21T09:38:14.406Z,101554.34
2019-03-21T09:41:03.572Z,101548.80
2019-03-21T09:43:52.582Z,101556.87
2019-03-21T09:46:50.919Z,101550.25
2019-03-21T09:49:33.665Z,101553.59
2019-03-21T09:52:22.835Z,101548.77
2019-03-21T09:55:12.549Z,101546.75
2019-03-21T09:58:02.020Z,101539.62
2019-03-21T10:00:52.222Z,101540.82
2019-03-21T10:03:41.176Z,101539.72
2019-03-21T10:06:31.183Z,101540.44
2019-03-21T10:09:20.937Z,101538.11
2019-03-21T10:12:11.222Z,101534.67
2019-03-21T10:15:00.404Z,101524.08
2019-03-21T10:17:50.573Z,101527.84
2019-03-21T10:20:39.391Z,101519.38
2019-03-21T10:23:28.823Z,101519.08
2019-03-21T10:26:18.083Z,101508.75
2019-03-21T10:29:07.331Z,101516.36
2019-03-21T10:31:56.701Z,101512.40
2019-03-21T10:34:46.573Z,101511.52
2019-03-21T10:37:36.524Z,101508.10
2019-03-21T10:40:26.093Z,101499.17
2019-03-21T10:43:15.447Z,101506.06
2019-03-21T10:46:05.624Z,101503.36
2019-03-21T10:48:55.873Z,101494.95
2019-03-21T10:51:54.474Z,101496.97
2019-03-21T10:54:36.181Z,101495.28
2019-03-21T10:57:25.074Z,101487.61
2019-03-21T11:00:14.850Z,101487.80
2019-03-21T11:03:04.641Z,101495.27
2019-03-21T11:05:54.128Z,101492.91
2019-03-21T11:08:44.102Z,101483.43
2019-03-21T11:11:34.039Z,101482.24
2019-03-21T11:14:24.154Z,101483.83
2019-03-21T11:17:14.771Z,101482.19
2019-03-21T11:20:04.402Z,101480.14
2019-03-21T11:22:55.810Z,101472.26
2019-03-21T11:25:45.119Z,101467.61
2019-03-21T11:28:34.241Z,101461.19
2019-03-21T11:31:24.196Z,101459.02
2019-03-21T11:34:14.588Z,101453.26
2019-03-21T11:37:04.684Z,101444.91
2019-03-21T11:39:54.630Z,101444.66
2019-03-21T11:42:44.383Z,101440.44
2019-03-21T11:45:34.310Z,101428.95
2019-03-21T11:48:24.368Z,101430.05
2019-03-21T11:51:13.551Z,101425.74
2019-03-21T11:54:03.877Z,101421.43
2019-03-21T11:56:54.036Z,101423.95
2019-03-21T11:59:51.494Z,101419.53
2019-03-21T12:02:34.308Z,101413.53
2019-03-21T12:05:24.419Z,101404.23
2019-03-21T12:08:13.799Z,101410.55
2019-03-21T12:11:03.794Z,101410.91
2019-03-21T12:13:53.972Z,101404.94
2019-03-21T12:16:44.095Z,101405.16
2019-03-21T12:19:34.197Z,101395.14
2019-03-21T12:22:29.899Z,101397.28
2019-03-21T12:25:15.609Z,101391.42
2019-03-21T12:28:04.537Z,101387.45
2019-03-21T12:30:53.737Z,101384.17
2019-03-21T12:33:43.429Z,101374.11
2019-03-21T12:36:34.644Z,101374.89
2019-03-21T12:39:24.966Z,101363.80
2019-03-21T12:42:15.125Z,101367.35
2019-03-21T12:45:07.327Z,101361.42
2019-03-21T12:47:57.614Z,101366.52
2019-03-21T12:50:47.447Z,101361.30
2019-03-21T12:53:37.752Z,101361.55
2019-03-21T12:56:27.739Z,101364.91
2019-03-21T12:59:17.363Z,101360.30
2019-03-21T13:02:06.357Z,101353.41
2019-03-21T13:04:56.953Z,101352.20
2019-03-21T13:07:47.208Z,101341.11
2019-03-21T13:10:37.187Z,101341.55
2019-03-21T13:13:27.548Z,101335.66
2019-03-21T13:16:16.710Z,101335.39
2019-03-21T13:19:05.903Z,101339.17
2019-03-21T13:21:55.947Z,101329.71
2019-03-21T13:24:45.846Z,101329.16
2019-03-21T13:27:35.970Z,101325.42
2019-03-21T13:30:25.747Z,101319.62
2019-03-21T13:33:15.082Z,101319.27
2019-03-21T13:36:05.479Z,101316.41
2019-03-21T13:38:55.621Z,101315.00
2019-03-21T13:41:45.626Z,101301.37
2019-03-21T13:44:35.003Z,101290.66
2019-03-21T13:47:25.261Z,101295.67
2019-03-21T13:50:14.940Z,101296.78
2019-03-21T13:53:17.594Z,101296.56
2019-03-21T13:55:56.513Z,101292.29
2019-03-21T13:58:46.863Z,101287.99
2019-03-21T14:01:37.220Z,101280.34
2019-03-21T14:04:27.110Z,101276.50
2019-03-21T14:07:16.602Z,101280.18
2019-03-21T14:10:06.033Z,101278.02
2019-03-21T14:12:56.013Z,101268.80
2019-03-21T14:15:46.107Z,101266.25
2019-03-21T14:18:36.393Z,101272.38
2019-03-21T14:21:26.429Z,101263.95
2019-03-21T14:24:15.902Z,101264.53
2019-03-21T14:27:05.645Z,101265.23
2019-03-21T14:30:01.251Z,101251.72
2019-03-21T14:32:46.219Z,101253.52
2019-03-21T14:35:36.102Z,101250.37
2019-03-21T14:38:26.684Z,101249.83
2019-03-21T14:41:16.189Z,101246.27
2019-03-21T14:44:07.211Z,101247.16
2019-03-21T14:46:56.530Z,101241.75
2019-03-21T14:49:46.423Z,101243.95
2019-03-21T14:52:36.345Z,101235.20
2019-03-21T14:55:26.416Z,101237.84
2019-03-21T14:58:16.290Z,101239.03
2019-03-21T15:01:05.745Z,101236.83
2019-03-21T15:03:55.618Z,101239.11
2019-03-21T15:06:45.316Z,101244.16
2019-03-21T15:09:34.619Z,101242.93
2019-03-21T15:12:23.886Z,101240.48
2019-03-21T15:15:14.058Z,101234.31
2019-03-21T15:18:03.997Z,101225.16
2019-03-21T15:20:55.602Z,101225.25
2019-03-21T15:23:45.245Z,101228.35
2019-03-21T15:26:35.427Z,101222.03
2019-03-21T15:29:24.837Z,101220.82
2019-03-21T15:32:14.379Z,101217.20
2019-03-21T15:35:04.559Z,101228.46
2019-03-21T15:37:54.817Z,101223.92
2019-03-21T15:40:44.281Z,101226.56
2019-03-21T15:43:34.201Z,101230.19
2019-03-21T15:46:24.054Z,101229.19
2019-03-21T15:49:15.362Z,101227.31
2019-03-21T15:52:04.711Z,101229.69
2019-03-21T15:54:54.978Z,101223.75
2019-03-21T15:57:45.675Z,101221.34
2019-03-21T16:00:39.289Z,101221.17
2019-03-21T16:03:28.417Z,101219.00
2019-03-21T16:06:18.448Z,101222.63
2019-03-21T16:09:09.020Z,101215.58
2019-03-21T16:11:58.633Z,101208.91
2019-03-21T16:14:49.405Z,101214.51
2019-03-21T16:17:38.366Z,101207.95
2019-03-21T16:20:28.531Z,101209.38
2019-03-21T16:23:18.861Z,101209.01
2019-03-21T16:26:08.109Z,101202.23
2019-03-21T16:28:58.254Z,101206.64
2019-03-21T16:31:48.399Z,101207.95
2019-03-21T16:34:38.034Z,101210.95
2019-03-21T16:37:28.387Z,101211.19
2019-03-21T16:40:18.912Z,101215.45
2019-03-21T16:43:08.831Z,101207.98
2019-03-21T16:45:59.044Z,101209.56
2019-03-21T16:48:48.969Z,101212.02
2019-03-21T16:51:39.037Z,101219.77
2019-03-21T16:54:30.390Z,101209.57
2019-03-21T16:57:20.397Z,101212.36
2019-03-21T17:00:10.474Z,101208.92
2019-03-21T17:03:02.122Z,101211.30
2019-03-21T17:05:52.789Z,101221.29
2019-03-21T17:08:42.405Z,101218.14
2019-03-21T17:11:32.094Z,101216.41
2019-03-21T17:14:22.027Z,101219.67
2019-03-21T17:17:12.108Z,101224.73
2019-03-21T17:20:03.768Z,101224.73
2019-03-21T17:22:55.237Z,101226.33
2019-03-21T17:25:45.036Z,101229.05
2019-03-21T17:28:34.818Z,101232.98
2019-03-21T17:31:24.569Z,101239.50
2019-03-21T17:34:14.335Z,101239.23
2019-03-21T17:37:04.430Z,101241.95
2019-03-21T17:39:54.633Z,101241.05
2019-03-21T17:42:45.257Z,101244.41
2019-03-21T17:45:35.581Z,101249.50
2019-03-21T17:48:25.861Z,101250.54
2019-03-21T17:51:15.011Z,101248.91
2019-03-21T17:54:03.991Z,101250.91
2019-03-21T17:56:52.878Z,101247.37
2019-03-21T17:59:42.910Z,101247.79
2019-03-21T18:02:33.385Z,101252.17
2019-03-21T18:05:23.479Z,101256.84
2019-03-21T18:08:13.758Z,101257.61
2019-03-21T18:11:02.874Z,101255.53
2019-03-21T18:13:52.890Z,101255.98
2019-03-21T18:16:41.984Z,101256.55
2019-03-21T18:19:31.556Z,101255.76
2019-03-21T18:22:21.476Z,101249.55
2019-03-21T18:25:12.691Z,101261.72
2019-03-21T18:28:02.804Z,101260.40
2019-03-21T18:30:51.829Z,101262.23
2019-03-21T18:33:41.189Z,101259.66
2019-03-21T18:36:31.465Z,101262.19
2019-03-21T18:39:21.417Z,101264.54
2019-03-21T18:42:11.465Z,101262.05
2019-03-21T18:45:00.608Z,101265.80
2019-03-21T18:47:50.506Z,101267.10
2019-03-21T18:50:40.353Z,101274.88
2019-03-21T18:53:30.287Z,101276.83
2019-03-21T18:56:19.704Z,101283.16
2019-03-21T18:59:09.108Z,101284.36
2019-03-21T19:01:59.180Z,101290.65
2019-03-21T19:04:48.522Z,101287.02
2019-03-21T19:07:38.281Z,101279.78
2019-03-21T19:10:28.655Z,101275.62
2019-03-21T19:13:18.742Z,101275.88
2019-03-21T19:16:07.910Z,101280.25
2019-03-21T19:18:57.596Z,101280.50
2019-03-21T19:21:47.772Z,101287.38
2019-03-21T19:24:37.473Z,101287.17
2019-03-21T19:27:27.272Z,101290.56
2019-03-21T19:30:16.617Z,101283.94
2019-03-21T19:33:07.303Z,101283.21
2019-03-21T19:35:57.188Z,101283.86
2019-03-21T19:38:46.844Z,101278.33
2019-03-21T19:41:36.765Z,101280.55
2019-03-21T19:44:26.668Z,101277.41
2019-03-21T19:47:23.854Z,101287.31
2019-03-21T19:50:08.878Z,101288.45
2019-03-21T19:52:58.625Z,101286.87
2019-03-21T19:55:48.950Z,101284.97
2019-03-21T19:58:38.203Z,101285.05
2019-03-21T20:01:29.001Z,101280.97
2019-03-21T20:04:18.788Z,101286.30
2019-03-21T20:07:08.041Z,101286.95
2019-03-21T20:09:56.972Z,101284.20
2019-03-21T20:12:47.487Z,101280.11
2019-03-21T20:15:36.850Z,101292.64
2019-03-21T20:18:26.649Z,101281.41
2019-03-21T20:21:16.948Z,101282.13
2019-03-21T20:24:07.059Z,101284.27
2019-03-21T20:26:57.326Z,101291.22
2019-03-21T20:29:46.209Z,101284.36
2019-03-21T20:32:36.270Z,101287.34
2019-03-21T20:35:26.329Z,101286.95
2019-03-21T20:38:16.262Z,101286.58
2019-03-21T20:41:05.329Z,101286.78
2019-03-21T20:43:55.088Z,101287.82
2019-03-21T20:46:44.253Z,101288.95
2019-03-21T20:49:33.534Z,101291.13
2019-03-21T20:52:23.356Z,101291.53
2019-03-21T20:55:13.669Z,101286.41
2019-03-21T20:58:03.433Z,101282.71
2019-03-21T21:00:53.397Z,101282.42
2019-03-21T21:03:43.687Z,101286.86
2019-03-21T21:06:33.616Z,101289.67
2019-03-21T21:09:22.811Z,101279.82
2019-03-21T21:12:12.801Z,101276.47
2019-03-21T21:15:02.634Z,101285.47
2019-03-21T21:17:52.562Z,101280.61
2019-03-21T21:20:42.448Z,101272.19
2019-03-21T21:23:31.960Z,101275.55
2019-03-21T21:26:22.041Z,101270.72
2019-03-21T21:29:12.259Z,101265.66
2019-03-21T21:32:02.063Z,101279.09
2019-03-21T21:34:54.476Z,101274.75
2019-03-21T21:37:42.884Z,101280.07
2019-03-21T21:40:34.403Z,101275.27
2019-03-21T21:43:24.368Z,101274.05
2019-03-21T21:46:14.061Z,101276.23
2019-03-21T21:49:04.471Z,101279.75
2019-03-21T21:51:54.044Z,101271.88
2019-03-21T21:54:43.896Z,101278.22
2019-03-21T21:57:34.489Z,101269.16
2019-03-21T22:00:24.566Z,101271.56
2019-03-21T22:03:14.417Z,101275.00
2019-03-21T22:06:03.847Z,101267.25
2019-03-21T22:08:53.052Z,101267.62
2019-03-21T22:11:43.135Z,101267.69
2019-03-21T22:14:32.605Z,101266.39
2019-03-21T22:17:22.283Z,101262.05
2019-03-21T22:20:12.305Z,101258.53
2019-03-21T22:23:02.009Z,101268.42
2019-03-21T22:25:51.347Z,101270.67
2019-03-21T22:28:41.592Z,101261.86
2019-03-21T22:31:31.581Z,101268.55
2019-03-21T22:34:21.677Z,101266.17
2019-03-21T22:37:10.776Z,101265.88
2019-03-21T22:40:02.466Z,101263.30
2019-03-21T22:42:51.385Z,101263.78
2019-03-21T22:45:41.060Z,101266.09
2019-03-21T22:48:31.189Z,101264.44
2019-03-21T22:51:21.357Z,101266.33
2019-03-21T22:54:11.217Z,101267.09
2019-03-21T22:57:01.587Z,101264.72
2019-03-21T22:59:51.484Z,101256.67
2019-03-21T23:02:40.610Z,101261.36
2019-03-21T23:05:30.569Z,101255.98
2019-03-21T23:08:20.185Z,101253.19
2019-03-21T23:11:09.748Z,101244.91
2019-03-21T23:13:58.802Z,101238.02
2019-03-21T23:16:48.381Z,101239.72
2019-03-21T23:19:38.257Z,101229.23
2019-03-21T23:22:27.450Z,101233.86
2019-03-21T23:25:17.553Z,101234.58
2019-03-21T23:28:07.370Z,101227.34
2019-03-21T23:30:57.571Z,101224.09
2019-03-21T23:33:47.778Z,101224.05
2019-03-21T23:36:38.000Z,101223.59
2019-03-21T23:39:28.162Z,101216.91
2019-03-21T23:42:17.881Z,101221.31
2019-03-21T23:45:07.253Z,101223.93
2019-03-21T23:47:57.743Z,101214.22
2019-03-21T23:50:48.082Z,101218.81
2019-03-21T23:53:38.098Z,101215.38
2019-03-21T23:56:28.092Z,101207.58
2019-03-21T23:59:18.030Z,101210.92
